createdAt,value
2024-05-09T00:02:58.117Z,1.30
2024-05-09T00:06:01.313Z,1.77
2024-05-09T00:09:04.059Z,1.57
2024-05-09T00:12:06.774Z,1.48
2024-05-09T00:15:09.872Z,1.50
2024-05-09T00:18:13.107Z,1.35
2024-05-09T00:21:16.129Z,1.58
2024-05-09T00:24:19.204Z,1.40
2024-05-09T00:27:22.908Z,1.20
2024-05-09T00:30:33.313Z,1.58
2024-05-09T00:33:38.935Z,1.27
2024-05-09T00:36:41.964Z,0.82
2024-05-09T00:39:44.899Z,1.20
2024-05-09T00:42:47.845Z,0.90
2024-05-09T00:45:51.144Z,0.90
2024-05-09T00:48:54.153Z,0.93
2024-05-09T00:51:57.371Z,0.90
2024-05-09T00:55:01.243Z,1.00
2024-05-09T00:58:05.482Z,1.67
2024-05-09T01:01:08.959Z,3.03
2024-05-09T01:04:11.661Z,1.65
2024-05-09T01:07:14.208Z,2.03
2024-05-09T01:10:21.323Z,1.43
2024-05-09T01:13:30.136Z,1.60
2024-05-09T01:16:33.163Z,1.30
2024-05-09T01:19:36.834Z,1.27
2024-05-09T01:22:39.856Z,1.23
2024-05-09T01:25:43.575Z,0.90
2024-05-09T01:28:46.681Z,1.30
2024-05-09T01:31:51.830Z,1.40
2024-05-09T01:34:54.831Z,1.30
2024-05-09T01:37:57.514Z,0.47
2024-05-09T01:41:00.749Z,0.73
2024-05-09T01:44:03.846Z,0.85
2024-05-09T01:47:06.992Z,1.08
2024-05-09T01:50:11.071Z,0.57
2024-05-09T01:53:15.096Z,1.20
2024-05-09T01:56:18.354Z,0.50
2024-05-09T01:59:20.834Z,0.88
2024-05-09T02:02:23.307Z,0.68
2024-05-09T02:05:26.374Z,0.55
2024-05-09T02:08:29.346Z,0.55
2024-05-09T02:11:32.794Z,0.67
2024-05-09T02:14:35.795Z,0.70
2024-05-09T02:17:38.982Z,0.30
2024-05-09T02:20:42.197Z,1.30
2024-05-09T02:23:46.097Z,0.52
2024-05-09T02:26:49.123Z,0.47
2024-05-09T02:29:51.889Z,0.30
2024-05-09T02:32:54.870Z,0.30
2024-05-09T02:35:57.336Z,0.60
2024-05-09T02:38:59.676Z,0.30
2024-05-09T02:42:02.716Z,0.30
2024-05-09T02:45:06.143Z,0.40
2024-05-09T02:48:13.711Z,0.30
2024-05-09T02:51:17.209Z,0.63
2024-05-09T02:54:19.589Z,0.40
2024-05-09T02:57:21.967Z,0.80
2024-05-09T03:00:34.219Z,0.43
2024-05-09T03:03:43.671Z,0.20
2024-05-09T03:06:46.651Z,0.20
2024-05-09T03:09:49.837Z,0.70
2024-05-09T03:12:52.889Z,0.23
2024-05-09T03:15:55.817Z,0.45
2024-05-09T03:18:58.757Z,0.30
2024-05-09T03:22:01.239Z,0.35
2024-05-09T03:25:04.275Z,0.47
2024-05-09T03:28:07.486Z,0.20
2024-05-09T03:31:10.357Z,0.30
2024-05-09T03:34:12.734Z,0.28
2024-05-09T03:37:15.552Z,0.30
2024-05-09T03:40:23.635Z,0.45
2024-05-09T03:43:29.435Z,0.30
2024-05-09T03:46:32.379Z,0.15
2024-05-09T03:49:35.397Z,0.20
2024-05-09T03:52:37.842Z,0.30
2024-05-09T03:55:40.483Z,0.47
2024-05-09T03:58:43.429Z,0.20
2024-05-09T04:01:45.948Z,0.20
2024-05-09T04:04:49.121Z,0.13
2024-05-09T04:07:52.763Z,0.20
2024-05-09T04:10:55.813Z,0.20
2024-05-09T04:13:58.345Z,0.20
2024-05-09T04:17:01.378Z,0.20
2024-05-09T04:20:05.141Z,0.30
2024-05-09T04:23:13.814Z,0.10
2024-05-09T04:26:17.605Z,0.55
2024-05-09T04:29:19.983Z,0.20
2024-05-09T04:32:22.508Z,0.28
2024-05-09T04:35:24.996Z,0.50
2024-05-09T04:38:29.875Z,0.57
2024-05-09T04:41:32.494Z,0.20
2024-05-09T04:44:35.518Z,0.20
2024-05-09T04:47:38.835Z,0.45
2024-05-09T04:50:41.616Z,0.25
2024-05-09T04:53:44.801Z,0.22
2024-05-09T04:56:47.946Z,0.20
2024-05-09T04:59:50.685Z,0.20
2024-05-09T05:02:53.951Z,0.38
2024-05-09T05:05:57.329Z,0.47
2024-05-09T05:09:00.272Z,0.32
2024-05-09T05:12:24.039Z,0.60
2024-05-09T05:15:26.926Z,0.20
2024-05-09T05:18:29.425Z,0.10
2024-05-09T05:21:32.600Z,0.20
2024-05-09T05:24:35.679Z,0.30
2024-05-09T05:27:38.675Z,0.47
2024-05-09T05:30:42.245Z,0.30
2024-05-09T05:33:44.784Z,0.25
2024-05-09T05:36:47.857Z,0.40
2024-05-09T05:39:50.844Z,0.43
2024-05-09T05:42:53.724Z,0.28
2024-05-09T05:45:56.868Z,0.47
2024-05-09T05:48:59.422Z,0.30
2024-05-09T05:52:02.555Z,0.90
2024-05-09T05:55:06.511Z,0.73
2024-05-09T05:58:10.883Z,0.38
2024-05-09T06:01:14.120Z,0.20
2024-05-09T06:04:16.637Z,0.22
2024-05-09T06:07:19.584Z,0.30
2024-05-09T06:10:26.280Z,0.47
2024-05-09T06:13:42.157Z,0.32
2024-05-09T06:16:45.118Z,0.30
2024-05-09T06:19:47.779Z,0.20
2024-05-09T06:22:50.877Z,0.40
2024-05-09T06:25:53.360Z,0.35
2024-05-09T06:28:56.333Z,0.25
2024-05-09T06:32:00.374Z,0.40
2024-05-09T06:35:03.081Z,0.45
2024-05-09T06:38:06.571Z,0.30
2024-05-09T06:41:09.500Z,0.47
2024-05-09T06:44:12.488Z,0.35
2024-05-09T06:47:15.647Z,0.20
2024-05-09T06:50:23.945Z,0.30
2024-05-09T06:53:31.014Z,0.20
2024-05-09T06:56:34.579Z,0.20
2024-05-09T06:59:37.126Z,0.30
2024-05-09T07:02:39.843Z,0.20
2024-05-09T07:05:42.947Z,0.40
2024-05-09T07:08:46.232Z,0.30
2024-05-09T07:11:49.636Z,0.28
2024-05-09T07:14:53.067Z,0.32
2024-05-09T07:17:56.291Z,0.13
2024-05-09T07:21:01.359Z,0.45
2024-05-09T07:24:04.687Z,0.40
2024-05-09T07:27:07.734Z,0.20
2024-05-09T07:30:13.628Z,0.60
2024-05-09T07:33:22.376Z,0.20
2024-05-09T07:36:26.687Z,0.35
2024-05-09T07:39:29.612Z,0.30
2024-05-09T07:42:31.886Z,0.30
2024-05-09T07:53:17.212Z,0.40
2024-05-09T07:55:09.381Z,0.32
2024-05-09T07:58:11.924Z,0.50
2024-05-09T08:01:14.468Z,0.30
2024-05-09T08:04:17.598Z,0.30
2024-05-09T08:07:20.298Z,0.30
2024-05-09T08:10:28.446Z,0.32
2024-05-09T08:13:32.665Z,0.43
2024-05-09T08:16:35.107Z,0.25
2024-05-09T08:19:38.606Z,0.23
2024-05-09T08:22:41.015Z,0.50
2024-05-09T08:25:43.757Z,0.22
2024-05-09T08:28:46.890Z,0.30
2024-05-09T08:31:49.830Z,0.28
2024-05-09T08:34:52.914Z,0.60
2024-05-09T08:37:56.040Z,0.40
2024-05-09T08:41:00.137Z,0.32
2024-05-09T08:44:06.649Z,0.30
2024-05-09T08:47:10.231Z,0.40
2024-05-09T08:50:28.381Z,0.30
2024-05-09T08:53:38.664Z,0.20
2024-05-09T08:56:46.407Z,0.30
2024-05-09T08:59:52.230Z,0.47
2024-05-09T09:02:56.341Z,0.20
2024-05-09T09:06:11.690Z,0.17
2024-05-09T09:09:14.661Z,0.20
2024-05-09T09:12:17.691Z,0.30
2024-05-09T09:15:20.686Z,0.30
2024-05-09T09:18:26.227Z,0.30
2024-05-09T09:21:30.036Z,0.30
2024-05-09T09:24:33.198Z,0.32
2024-05-09T09:27:35.804Z,0.50
2024-05-09T09:30:40.443Z,0.55
2024-05-09T09:33:44.038Z,0.60
2024-05-09T09:36:47.787Z,0.30
2024-05-09T09:39:51.042Z,0.20
2024-05-09T09:42:58.112Z,0.25
2024-05-09T09:46:02.398Z,0.30
2024-05-09T09:49:07.394Z,0.30
2024-05-09T09:52:11.316Z,0.30
2024-05-09T09:55:13.951Z,0.50
2024-05-09T09:58:18.215Z,0.30
2024-05-09T10:01:20.984Z,0.25
2024-05-09T10:04:24.656Z,0.38
2024-05-09T10:07:29.782Z,0.30
2024-05-09T10:10:34.568Z,0.20
2024-05-09T10:13:37.765Z,0.20
2024-05-09T10:16:44.846Z,0.28
2024-05-09T10:19:48.036Z,0.30
2024-05-09T10:22:50.942Z,0.20
2024-05-09T10:26:00.580Z,0.30
2024-05-09T10:29:17.895Z,0.20
2024-05-09T10:32:20.350Z,0.30
2024-05-09T10:35:25.539Z,0.40
2024-05-09T10:38:28.967Z,0.50
2024-05-09T10:41:31.449Z,0.35
2024-05-09T10:44:38.376Z,0.50
2024-05-09T10:47:42.381Z,0.25
2024-05-09T10:50:47.173Z,0.30
2024-05-09T10:53:49.754Z,0.30
2024-05-09T10:56:58.885Z,0.30
2024-05-09T11:00:02.022Z,0.20
2024-05-09T11:03:05.649Z,0.20
2024-05-09T11:06:10.026Z,0.50
2024-05-09T11:09:13.143Z,0.20
2024-05-09T11:12:16.298Z,0.30
2024-05-09T11:15:19.480Z,0.40
2024-05-09T11:18:26.480Z,0.30
2024-05-09T11:21:30.996Z,0.40
2024-05-09T11:24:35.673Z,0.30
2024-05-09T11:27:41.157Z,0.30
2024-05-09T11:30:44.228Z,0.40
2024-05-09T11:33:47.469Z,0.30
2024-05-09T11:36:49.869Z,0.20
2024-05-09T11:39:54.029Z,0.30
2024-05-09T11:42:56.639Z,0.30
2024-05-09T11:45:59.975Z,0.20
2024-05-09T11:49:03.194Z,0.30
2024-05-09T11:52:06.442Z,0.45
2024-05-09T11:55:09.712Z,0.30
2024-05-09T11:58:14.819Z,0.40
2024-05-09T12:01:20.124Z,0.35
2024-05-09T12:04:23.374Z,0.60
2024-05-09T12:07:26.438Z,0.30
2024-05-09T12:10:33.768Z,0.30
2024-05-09T12:13:38.621Z,0.30
2024-05-09T12:16:41.717Z,0.45
2024-05-09T12:19:44.819Z,0.30
2024-05-09T12:22:50.472Z,0.40
2024-05-09T12:25:54.611Z,0.50
2024-05-09T12:28:57.702Z,0.35
2024-05-09T12:32:01.132Z,0.40
2024-05-09T12:35:04.550Z,0.30
2024-05-09T12:38:07.842Z,0.40
2024-05-09T12:41:10.660Z,0.30
2024-05-09T12:44:13.618Z,0.20
2024-05-09T12:47:17.134Z,0.30
2024-05-09T12:50:29.202Z,0.30
2024-05-09T12:53:36.310Z,0.30
2024-05-09T12:56:39.314Z,0.20
2024-05-09T12:59:42.795Z,0.30
2024-05-09T13:02:45.818Z,0.30
2024-05-09T13:05:50.421Z,0.40
2024-05-09T13:08:54.034Z,0.55
2024-05-09T13:11:57.164Z,0.50
2024-05-09T13:15:00.132Z,0.40
2024-05-09T13:18:04.087Z,0.40
2024-05-09T13:21:07.315Z,0.30
2024-05-09T13:24:09.702Z,0.43
2024-05-09T13:27:12.524Z,0.30
2024-05-09T13:30:21.915Z,0.38
2024-05-09T13:33:33.275Z,0.28
2024-05-09T13:36:36.656Z,0.40
2024-05-09T13:39:39.089Z,0.40
2024-05-09T13:42:41.627Z,0.37
2024-05-09T13:45:44.187Z,0.30
2024-05-09T13:48:46.739Z,0.40
2024-05-09T13:51:49.980Z,0.30
2024-05-09T13:54:53.142Z,0.40
2024-05-09T13:57:55.809Z,0.30
2024-05-09T14:00:58.500Z,0.43
2024-05-09T14:04:01.595Z,0.40
2024-05-09T14:07:05.010Z,0.30
2024-05-09T14:10:19.414Z,0.50
2024-05-09T14:13:26.042Z,0.50
2024-05-09T14:16:32.938Z,0.47
2024-05-09T14:19:35.976Z,0.50
2024-05-09T14:22:41.047Z,0.35
2024-05-09T14:25:45.006Z,0.43
2024-05-09T14:28:48.851Z,0.40
2024-05-09T14:31:51.313Z,0.40
2024-05-09T14:34:54.438Z,0.30
2024-05-09T14:37:57.943Z,0.30
2024-05-09T14:41:00.952Z,0.40
2024-05-09T14:44:03.374Z,0.40
2024-05-09T14:47:06.551Z,0.38
2024-05-09T14:50:13.913Z,0.30
2024-05-09T14:53:23.781Z,0.30
2024-05-09T14:56:27.085Z,0.40
2024-05-09T14:59:29.705Z,0.43
2024-05-09T15:02:34.171Z,0.40
2024-05-09T15:05:37.466Z,0.45
2024-05-09T15:08:40.023Z,0.30
2024-05-09T15:11:44.202Z,0.60
2024-05-09T15:14:46.768Z,0.40
2024-05-09T15:17:50.652Z,0.35
2024-05-09T15:20:54.335Z,0.40
2024-05-09T15:23:57.582Z,0.40
2024-05-09T15:27:00.859Z,0.52
2024-05-09T15:30:06.875Z,0.60
2024-05-09T15:33:13.293Z,0.30
2024-05-09T15:36:15.685Z,0.30
2024-05-09T15:39:19.851Z,0.20
2024-05-09T15:42:22.279Z,0.30
2024-05-09T15:45:25.323Z,0.70
2024-05-09T15:48:27.967Z,0.22
2024-05-09T15:51:30.530Z,0.30
2024-05-09T15:54:32.981Z,0.20
2024-05-09T15:57:35.671Z,0.40
2024-05-09T16:00:42.212Z,0.20
2024-05-09T16:03:47.126Z,0.30
2024-05-09T16:06:50.821Z,0.30
2024-05-09T16:09:53.387Z,0.30
2024-05-09T16:12:56.470Z,0.50
2024-05-09T16:15:59.731Z,0.30
2024-05-09T16:19:03.005Z,0.73
2024-05-09T16:22:05.902Z,0.45
2024-05-09T16:25:08.504Z,0.50
2024-05-09T16:28:11.940Z,0.38
2024-05-09T16:31:15.240Z,0.30
2024-05-09T16:34:17.794Z,0.60
2024-05-09T16:37:20.758Z,0.30
2024-05-09T16:40:33.054Z,0.40
2024-05-09T16:43:40.394Z,0.70
2024-05-09T16:46:42.823Z,0.40
2024-05-09T16:49:46.053Z,0.55
2024-05-09T16:52:48.700Z,0.57
2024-05-09T16:55:52.674Z,0.30
2024-05-09T16:58:55.916Z,0.40
2024-05-09T17:01:59.460Z,0.27
2024-05-09T17:05:02.391Z,0.35
2024-05-09T17:08:06.556Z,0.32
2024-05-09T17:11:12.350Z,0.50
2024-05-09T17:14:15.515Z,0.40
2024-05-09T17:17:20.074Z,0.40
2024-05-09T17:20:29.866Z,0.30
2024-05-09T17:23:37.080Z,0.47
2024-05-09T17:26:40.117Z,0.30
2024-05-09T17:29:43.272Z,0.70
2024-05-09T17:32:45.742Z,0.20
2024-05-09T17:35:50.804Z,0.30
2024-05-09T17:38:54.089Z,0.30
2024-05-09T17:41:58.502Z,0.30
2024-05-09T17:45:01.613Z,0.22
2024-05-09T17:48:05.088Z,0.30
2024-05-09T17:51:08.190Z,0.40
2024-05-09T17:54:10.629Z,0.20
2024-05-09T17:57:13.146Z,0.45
2024-05-09T18:00:24.618Z,0.30
2024-05-09T18:03:36.984Z,0.30
2024-05-09T18:06:40.393Z,0.30
2024-05-09T18:09:42.869Z,0.40
2024-05-09T18:12:45.575Z,0.32
2024-05-09T18:15:48.223Z,0.65
2024-05-09T18:18:51.548Z,0.30
2024-05-09T18:21:54.642Z,0.22
2024-05-09T18:24:57.761Z,0.28
2024-05-09T18:28:03.037Z,0.22
2024-05-09T18:31:06.269Z,0.20
2024-05-09T18:34:08.885Z,0.33
2024-05-09T18:37:14.812Z,0.20
2024-05-09T18:40:24.842Z,0.32
2024-05-09T18:43:38.553Z,0.35
2024-05-09T18:46:47.563Z,0.40
2024-05-09T18:49:50.944Z,0.27
2024-05-09T18:52:54.053Z,0.45
2024-05-09T18:55:56.525Z,0.57
2024-05-09T18:58:59.310Z,0.45
2024-05-09T19:02:02.832Z,1.35
2024-05-09T19:05:05.800Z,3.70
2024-05-09T19:08:08.849Z,0.82
2024-05-09T19:11:11.823Z,0.75
2024-05-09T19:14:14.266Z,0.82
2024-05-09T19:17:16.734Z,0.57
2024-05-09T19:20:25.509Z,0.80
2024-05-09T19:23:38.265Z,0.57
2024-05-09T19:26:44.960Z,0.70
2024-05-09T19:29:47.490Z,0.70
2024-05-09T19:32:50.520Z,0.60
2024-05-09T19:35:53.467Z,0.47
2024-05-09T19:38:55.854Z,0.70
2024-05-09T19:41:58.798Z,1.05
2024-05-09T19:45:01.400Z,0.60
2024-05-09T19:48:06.291Z,0.90
2024-05-09T19:51:09.979Z,0.70
2024-05-09T19:54:12.906Z,0.60
2024-05-09T19:57:16.695Z,1.00
2024-05-09T20:00:25.986Z,0.60
2024-05-09T20:03:36.969Z,1.05
2024-05-09T20:06:41.020Z,0.77
2024-05-09T20:09:43.993Z,0.90
2024-05-09T20:12:47.106Z,0.70
2024-05-09T20:15:49.651Z,0.88
2024-05-09T20:18:52.898Z,0.70
2024-05-09T20:21:55.307Z,0.90
2024-05-09T20:24:58.491Z,0.70
2024-05-09T20:28:01.089Z,0.85
2024-05-09T20:31:03.843Z,0.77
2024-05-09T20:34:07.055Z,0.63
2024-05-09T20:37:10.126Z,0.77
2024-05-09T20:40:21.147Z,0.50
2024-05-09T20:43:28.682Z,0.68
2024-05-09T20:46:31.685Z,0.47
2024-05-09T20:49:34.684Z,0.43
2024-05-09T20:52:37.184Z,0.60
2024-05-09T20:55:40.450Z,0.63
2024-05-09T20:58:43.674Z,0.40
2024-05-09T21:01:49.270Z,0.40
2024-05-09T21:04:52.348Z,0.55
2024-05-09T21:07:55.514Z,0.30
2024-05-09T21:10:57.889Z,0.43
2024-05-09T21:14:00.877Z,0.30
2024-05-09T21:17:04.132Z,0.60
2024-05-09T21:20:14.206Z,0.60
2024-05-09T21:23:20.186Z,0.70
2024-05-09T21:26:23.944Z,0.40
2024-05-09T21:29:26.887Z,0.60
2024-05-09T21:32:30.008Z,0.70
2024-05-09T21:35:32.459Z,0.38
2024-05-09T21:38:34.874Z,0.50
2024-05-09T21:41:37.875Z,0.60
2024-05-09T21:44:40.815Z,0.75
2024-05-09T21:47:43.846Z,0.57
2024-05-09T21:50:46.838Z,0.88
2024-05-09T21:53:49.319Z,0.70
2024-05-09T21:56:52.667Z,0.63
2024-05-09T21:59:55.566Z,0.70
2024-05-09T22:02:57.995Z,0.93
2024-05-09T22:06:01.024Z,0.50
2024-05-09T22:09:05.377Z,0.60
2024-05-09T22:12:08.366Z,0.80
2024-05-09T22:15:10.857Z,0.80
2024-05-09T22:18:13.961Z,0.70
2024-05-09T22:21:16.436Z,0.90
2024-05-09T22:24:18.732Z,0.73
2024-05-09T22:27:21.752Z,0.68
2024-05-09T22:30:31.905Z,0.50
2024-05-09T22:33:39.110Z,0.70
2024-05-09T22:36:42.232Z,0.82
2024-05-09T22:39:44.557Z,0.53
2024-05-09T22:42:46.893Z,0.68
2024-05-09T22:45:49.315Z,0.65
2024-05-09T22:48:52.271Z,0.77
2024-05-09T22:51:54.716Z,0.60
2024-05-09T22:54:57.807Z,0.60
2024-05-09T22:58:00.943Z,0.63
2024-05-09T23:01:04.665Z,0.60
2024-05-09T23:04:07.492Z,0.63
2024-05-09T23:07:10.770Z,1.10
2024-05-09T23:10:20.946Z,0.80
2024-05-09T23:13:30.320Z,0.82
2024-05-09T23:16:33.235Z,0.88
2024-05-09T23:19:35.768Z,0.80
2024-05-09T23:22:39.119Z,0.82
2024-05-09T23:25:42.204Z,0.50
2024-05-09T23:28:45.177Z,1.00
2024-05-09T23:31:47.542Z,0.90
2024-05-09T23:34:50.549Z,1.02
2024-05-09T23:37:53.032Z,1.02
2024-05-09T23:40:55.652Z,0.70
2024-05-09T23:43:58.696Z,0.85
2024-05-09T23:47:01.094Z,0.63
2024-05-09T23:50:05.175Z,0.85
2024-05-09T23:53:10.250Z,0.88
2024-05-09T23:56:17.316Z,0.70
2024-05-09T23:59:20.308Z,0.68
